sensor_id;sensor_type;location;lat;lon;timestamp;P1;durP1;ratioP1;P2;durP2;ratioP2
7729;SDS011;3908;52.310;7.230;2023-04-06T00:01:26;9.40;;;6.63;;
7729;SDS011;3908;52.310;7.230;2023-04-06T00:04:13;10.57;;;6.70;;
7729;SDS011;3908;52.310;7.230;2023-04-06T00:07:00;9.40;;;6.37;;
7729;SDS011;3908;52.310;7.230;2023-04-06T00:09:48;10.87;;;6.97;;
7729;SDS011;3908;52.310;7.230;2023-04-06T00:12:35;9.07;;;6.00;;
7729;SDS011;3908;52.310;7.230;2023-04-06T00:15:22;9.33;;;6.50;;
7729;SDS011;3908;52.310;7.230;2023-04-06T00:18:09;9.40;;;5.97;;
7729;SDS011;3908;52.310;7.230;2023-04-06T00:20:55;10.87;;;6.57;;
7729;SDS011;3908;52.310;7.230;2023-04-06T00:23:42;7.97;;;5.60;;
7729;SDS011;3908;52.310;7.230;2023-04-06T00:26:30;9.80;;;6.93;;
7729;SDS011;3908;52.310;7.230;2023-04-06T00:29:17;10.73;;;6.40;;
7729;SDS011;3908;52.310;7.230;2023-04-06T00:32:04;8.87;;;6.43;;
7729;SDS011;3908;52.310;7.230;2023-04-06T00:34:51;12.00;;;6.37;;
7729;SDS011;3908;52.310;7.230;2023-04-06T00:37:38;8.03;;;6.23;;
7729;SDS011;3908;52.310;7.230;2023-04-06T00:40:24;8.53;;;5.93;;
7729;SDS011;3908;52.310;7.230;2023-04-06T00:43:15;10.50;;;6.87;;
7729;SDS011;3908;52.310;7.230;2023-04-06T00:46:02;8.47;;;6.57;;
7729;SDS011;3908;52.310;7.230;2023-04-06T00:48:48;8.97;;;7.17;;
7729;SDS011;3908;52.310;7.230;2023-04-06T00:51:35;9.47;;;6.37;;
7729;SDS011;3908;52.310;7.230;2023-04-06T00:54:22;11.07;;;6.57;;
7729;SDS011;3908;52.310;7.230;2023-04-06T00:57:09;8.23;;;6.27;;
7729;SDS011;3908;52.310;7.230;2023-04-06T00:59:57;10.43;;;6.00;;
7729;SDS011;3908;52.310;7.230;2023-04-06T01:02:44;10.57;;;6.50;;
7729;SDS011;3908;52.310;7.230;2023-04-06T01:05:32;8.30;;;6.03;;
7729;SDS011;3908;52.310;7.230;2023-04-06T01:08:19;12.67;;;6.67;;
7729;SDS011;3908;52.310;7.230;2023-04-06T01:11:06;11.40;;;6.83;;
7729;SDS011;3908;52.310;7.230;2023-04-06T01:13:53;10.83;;;6.90;;
7729;SDS011;3908;52.310;7.230;2023-04-06T01:16:41;13.10;;;7.40;;
7729;SDS011;3908;52.310;7.230;2023-04-06T01:19:28;9.83;;;6.80;;
7729;SDS011;3908;52.310;7.230;2023-04-06T01:22:17;9.93;;;6.63;;
7729;SDS011;3908;52.310;7.230;2023-04-06T01:25:04;10.77;;;6.77;;
7729;SDS011;3908;52.310;7.230;2023-04-06T01:27:51;8.67;;;6.33;;
7729;SDS011;3908;52.310;7.230;2023-04-06T01:30:38;10.23;;;6.70;;
7729;SDS011;3908;52.310;7.230;2023-04-06T01:33:24;11.73;;;7.47;;
7729;SDS011;3908;52.310;7.230;2023-04-06T01:36:11;9.27;;;6.47;;
7729;SDS011;3908;52.310;7.230;2023-04-06T01:38:59;10.17;;;6.93;;
7729;SDS011;3908;52.310;7.230;2023-04-06T01:41:46;10.40;;;6.83;;
7729;SDS011;3908;52.310;7.230;2023-04-06T01:44:33;9.43;;;7.10;;
7729;SDS011;3908;52.310;7.230;2023-04-06T01:47:20;9.73;;;6.60;;
7729;SDS011;3908;52.310;7.230;2023-04-06T01:50:07;11.20;;;6.60;;
7729;SDS011;3908;52.310;7.230;2023-04-06T01:52:54;9.00;;;6.33;;
7729;SDS011;3908;52.310;7.230;2023-04-06T01:55:42;12.40;;;7.23;;
7729;SDS011;3908;52.310;7.230;2023-04-06T01:58:29;8.10;;;6.10;;
7729;SDS011;3908;52.310;7.230;2023-04-06T02:01:16;11.67;;;7.67;;
7729;SDS011;3908;52.310;7.230;2023-04-06T02:04:03;8.83;;;6.57;;
7729;SDS011;3908;52.310;7.230;2023-04-06T02:06:50;11.30;;;7.30;;
7729;SDS011;3908;52.310;7.230;2023-04-06T02:09:37;11.67;;;7.10;;
7729;SDS011;3908;52.310;7.230;2023-04-06T02:12:25;11.60;;;8.07;;
7729;SDS011;3908;52.310;7.230;2023-04-06T02:15:12;11.37;;;7.70;;
7729;SDS011;3908;52.310;7.230;2023-04-06T02:17:59;12.47;;;8.17;;
7729;SDS011;3908;52.310;7.230;2023-04-06T02:20:46;12.27;;;7.73;;
7729;SDS011;3908;52.310;7.230;2023-04-06T02:23:33;9.00;;;7.10;;
7729;SDS011;3908;52.310;7.230;2023-04-06T02:26:20;10.30;;;7.00;;
7729;SDS011;3908;52.310;7.230;2023-04-06T02:29:08;10.17;;;6.97;;
7729;SDS011;3908;52.310;7.230;2023-04-06T02:31:56;13.03;;;7.93;;
7729;SDS011;3908;52.310;7.230;2023-04-06T02:34:43;10.67;;;7.90;;
7729;SDS011;3908;52.310;7.230;2023-04-06T02:37:30;10.23;;;7.50;;
7729;SDS011;3908;52.310;7.230;2023-04-06T02:40:16;12.70;;;7.73;;
7729;SDS011;3908;52.310;7.230;2023-04-06T02:43:03;9.97;;;7.37;;
7729;SDS011;3908;52.310;7.230;2023-04-06T02:45:51;11.00;;;7.60;;
7729;SDS011;3908;52.310;7.230;2023-04-06T02:48:38;10.37;;;7.60;;
7729;SDS011;3908;52.310;7.230;2023-04-06T02:51:25;13.00;;;8.20;;
7729;SDS011;3908;52.310;7.230;2023-04-06T02:54:12;12.30;;;7.93;;
7729;SDS011;3908;52.310;7.230;2023-04-06T02:56:59;9.93;;;7.30;;
7729;SDS011;3908;52.310;7.230;2023-04-06T02:59:46;11.37;;;7.67;;
7729;SDS011;3908;52.310;7.230;2023-04-06T03:02:34;11.47;;;7.40;;
7729;SDS011;3908;52.310;7.230;2023-04-06T03:05:21;12.13;;;7.90;;
7729;SDS011;3908;52.310;7.230;2023-04-06T03:08:07;10.43;;;7.03;;
7729;SDS011;3908;52.310;7.230;2023-04-06T03:10:54;10.23;;;7.30;;
7729;SDS011;3908;52.310;7.230;2023-04-06T03:13:41;9.90;;;6.97;;
7729;SDS011;3908;52.310;7.230;2023-04-06T03:16:28;10.07;;;7.83;;
7729;SDS011;3908;52.310;7.230;2023-04-06T03:19:16;10.23;;;7.60;;
7729;SDS011;3908;52.310;7.230;2023-04-06T03:22:03;8.43;;;6.93;;
7729;SDS011;3908;52.310;7.230;2023-04-06T03:24:50;10.07;;;6.60;;
7729;SDS011;3908;52.310;7.230;2023-04-06T03:27:37;11.50;;;7.97;;
7729;SDS011;3908;52.310;7.230;2023-04-06T03:30:24;9.57;;;7.10;;
7729;SDS011;3908;52.310;7.230;2023-04-06T03:33:12;10.87;;;7.20;;
7729;SDS011;3908;52.310;7.230;2023-04-06T03:36:00;13.90;;;8.63;;
7729;SDS011;3908;52.310;7.230;2023-04-06T03:38:47;9.37;;;7.00;;
7729;SDS011;3908;52.310;7.230;2023-04-06T03:41:33;11.93;;;8.27;;
7729;SDS011;3908;52.310;7.230;2023-04-06T03:44:20;11.73;;;8.10;;
7729;SDS011;3908;52.310;7.230;2023-04-06T03:47:07;12.00;;;7.53;;
7729;SDS011;3908;52.310;7.230;2023-04-06T03:49:54;12.03;;;8.70;;
7729;SDS011;3908;52.310;7.230;2023-04-06T03:52:42;13.77;;;8.17;;
7729;SDS011;3908;52.310;7.230;2023-04-06T03:55:29;11.93;;;7.50;;
7729;SDS011;3908;52.310;7.230;2023-04-06T03:58:16;13.23;;;8.03;;
7729;SDS011;3908;52.310;7.230;2023-04-06T04:01:02;12.27;;;7.50;;
7729;SDS011;3908;52.310;7.230;2023-04-06T04:03:49;12.87;;;8.33;;
7729;SDS011;3908;52.310;7.230;2023-04-06T04:06:36;9.13;;;7.40;;
7729;SDS011;3908;52.310;7.230;2023-04-06T04:09:25;10.87;;;7.20;;
7729;SDS011;3908;52.310;7.230;2023-04-06T04:12:12;13.00;;;8.43;;
7729;SDS011;3908;52.310;7.230;2023-04-06T04:15:00;11.50;;;7.50;;
7729;SDS011;3908;52.310;7.230;2023-04-06T04:17:46;9.90;;;6.53;;
7729;SDS011;3908;52.310;7.230;2023-04-06T04:20:34;10.27;;;7.53;;
7729;SDS011;3908;52.310;7.230;2023-04-06T04:23:21;9.67;;;7.10;;
7729;SDS011;3908;52.310;7.230;2023-04-06T04:26:09;13.83;;;7.70;;
7729;SDS011;3908;52.310;7.230;2023-04-06T04:28:56;13.67;;;8.87;;
7729;SDS011;3908;52.310;7.230;2023-04-06T04:31:43;14.57;;;9.73;;
7729;SDS011;3908;52.310;7.230;2023-04-06T04:34:30;12.60;;;8.40;;
7729;SDS011;3908;52.310;7.230;2023-04-06T04:37:17;14.77;;;9.43;;
7729;SDS011;3908;52.310;7.230;2023-04-06T04:40:04;13.37;;;8.20;;
7729;SDS011;3908;52.310;7.230;2023-04-06T04:42:52;12.80;;;9.10;;
7729;SDS011;3908;52.310;7.230;2023-04-06T04:45:39;11.47;;;8.43;;
7729;SDS011;3908;52.310;7.230;2023-04-06T04:48:26;15.10;;;8.93;;
7729;SDS011;3908;52.310;7.230;2023-04-06T04:51:12;11.73;;;7.87;;
7729;SDS011;3908;52.310;7.230;2023-04-06T04:53:59;13.37;;;9.33;;
7729;SDS011;3908;52.310;7.230;2023-04-06T04:56:46;11.43;;;8.10;;
7729;SDS011;3908;52.310;7.230;2023-04-06T04:59:35;11.77;;;8.50;;
7729;SDS011;3908;52.310;7.230;2023-04-06T05:02:21;11.87;;;7.87;;
7729;SDS011;3908;52.310;7.230;2023-04-06T05:05:08;14.43;;;8.07;;
7729;SDS011;3908;52.310;7.230;2023-04-06T05:07:56;15.23;;;8.50;;
7729;SDS011;3908;52.310;7.230;2023-04-06T05:10:43;15.40;;;8.37;;
7729;SDS011;3908;52.310;7.230;2023-04-06T05:13:33;13.83;;;8.03;;
7729;SDS011;3908;52.310;7.230;2023-04-06T05:16:22;16.27;;;8.23;;
7729;SDS011;3908;52.310;7.230;2023-04-06T05:19:09;13.20;;;9.03;;
7729;SDS011;3908;52.310;7.230;2023-04-06T05:21:56;15.10;;;8.83;;
7729;SDS011;3908;52.310;7.230;2023-04-06T05:24:43;13.93;;;8.60;;
7729;SDS011;3908;52.310;7.230;2023-04-06T05:27:30;16.27;;;9.37;;
7729;SDS011;3908;52.310;7.230;2023-04-06T05:30:17;13.43;;;8.87;;
7729;SDS011;3908;52.310;7.230;2023-04-06T05:33:05;15.87;;;9.53;;
7729;SDS011;3908;52.310;7.230;2023-04-06T05:35:52;13.93;;;8.87;;
7729;SDS011;3908;52.310;7.230;2023-04-06T05:38:39;12.83;;;9.00;;
7729;SDS011;3908;52.310;7.230;2023-04-06T05:41:26;12.20;;;9.03;;
7729;SDS011;3908;52.310;7.230;2023-04-06T05:44:13;11.37;;;8.33;;
7729;SDS011;3908;52.310;7.230;2023-04-06T05:47:00;14.40;;;8.67;;
7729;SDS011;3908;52.310;7.230;2023-04-06T05:49:48;14.60;;;8.83;;
7729;SDS011;3908;52.310;7.230;2023-04-06T05:52:35;12.37;;;9.03;;
7729;SDS011;3908;52.310;7.230;2023-04-06T05:55:22;12.43;;;8.27;;
7729;SDS011;3908;52.310;7.230;2023-04-06T05:58:09;14.40;;;9.87;;
7729;SDS011;3908;52.310;7.230;2023-04-06T06:00:56;12.27;;;8.97;;
7729;SDS011;3908;52.310;7.230;2023-04-06T06:03:43;12.10;;;8.33;;
7729;SDS011;3908;52.310;7.230;2023-04-06T06:06:31;15.63;;;8.27;;
7729;SDS011;3908;52.310;7.230;2023-04-06T06:09:18;14.17;;;8.37;;
7729;SDS011;3908;52.310;7.230;2023-04-06T06:12:05;13.33;;;9.50;;
7729;SDS011;3908;52.310;7.230;2023-04-06T06:14:51;12.17;;;8.80;;
7729;SDS011;3908;52.310;7.230;2023-04-06T06:17:38;13.13;;;8.47;;
7729;SDS011;3908;52.310;7.230;2023-04-06T06:20:30;14.93;;;9.00;;
7729;SDS011;3908;52.310;7.230;2023-04-06T06:23:18;14.67;;;9.03;;
7729;SDS011;3908;52.310;7.230;2023-04-06T06:26:05;15.73;;;8.43;;
7729;SDS011;3908;52.310;7.230;2023-04-06T06:28:52;16.77;;;8.97;;
7729;SDS011;3908;52.310;7.230;2023-04-06T06:31:39;11.60;;;8.17;;
7729;SDS011;3908;52.310;7.230;2023-04-06T06:34:25;12.17;;;8.43;;
7729;SDS011;3908;52.310;7.230;2023-04-06T06:37:12;15.37;;;8.87;;
7729;SDS011;3908;52.310;7.230;2023-04-06T06:40:00;12.07;;;8.43;;
7729;SDS011;3908;52.310;7.230;2023-04-06T06:42:47;15.33;;;9.30;;
7729;SDS011;3908;52.310;7.230;2023-04-06T06:45:34;12.87;;;9.40;;
7729;SDS011;3908;52.310;7.230;2023-04-06T06:48:21;14.97;;;8.67;;
7729;SDS011;3908;52.310;7.230;2023-04-06T06:51:08;12.43;;;8.57;;
7729;SDS011;3908;52.310;7.230;2023-04-06T06:53:57;16.33;;;9.03;;
7729;SDS011;3908;52.310;7.230;2023-04-06T06:56:45;14.30;;;8.90;;
7729;SDS011;3908;52.310;7.230;2023-04-06T06:59:32;15.03;;;9.07;;
7729;SDS011;3908;52.310;7.230;2023-04-06T07:02:18;13.10;;;9.47;;
7729;SDS011;3908;52.310;7.230;2023-04-06T07:05:05;12.13;;;8.77;;
7729;SDS011;3908;52.310;7.230;2023-04-06T07:07:52;12.50;;;9.37;;
7729;SDS011;3908;52.310;7.230;2023-04-06T07:10:39;14.30;;;8.57;;
7729;SDS011;3908;52.310;7.230;2023-04-06T07:13:27;12.53;;;8.50;;
7729;SDS011;3908;52.310;7.230;2023-04-06T07:16:14;14.27;;;8.97;;
7729;SDS011;3908;52.310;7.230;2023-04-06T07:19:01;14.90;;;8.67;;
7729;SDS011;3908;52.310;7.230;2023-04-06T07:21:48;14.10;;;9.17;;
7729;SDS011;3908;52.310;7.230;2023-04-06T07:24:35;18.10;;;8.83;;
7729;SDS011;3908;52.310;7.230;2023-04-06T07:27:22;11.17;;;8.57;;
7729;SDS011;3908;52.310;7.230;2023-04-06T07:30:11;12.83;;;8.13;;
7729;SDS011;3908;52.310;7.230;2023-04-06T07:32:57;13.90;;;9.37;;
7729;SDS011;3908;52.310;7.230;2023-04-06T07:35:45;14.23;;;9.10;;
7729;SDS011;3908;52.310;7.230;2023-04-06T07:38:32;13.83;;;8.93;;
7729;SDS011;3908;52.310;7.230;2023-04-06T07:41:18;12.97;;;8.57;;
7729;SDS011;3908;52.310;7.230;2023-04-06T07:44:05;11.93;;;8.53;;
7729;SDS011;3908;52.310;7.230;2023-04-06T07:46:53;14.83;;;9.53;;
7729;SDS011;3908;52.310;7.230;2023-04-06T07:49:40;12.73;;;8.30;;
7729;SDS011;3908;52.310;7.230;2023-04-06T07:52:27;23.17;;;9.43;;
7729;SDS011;3908;52.310;7.230;2023-04-06T07:55:14;13.90;;;8.80;;
7729;SDS011;3908;52.310;7.230;2023-04-06T07:58:01;17.67;;;9.20;;
7729;SDS011;3908;52.310;7.230;2023-04-06T08:00:47;11.37;;;8.70;;
7729;SDS011;3908;52.310;7.230;2023-04-06T08:03:35;13.67;;;9.60;;
7729;SDS011;3908;52.310;7.230;2023-04-06T08:06:22;12.63;;;8.77;;
7729;SDS011;3908;52.310;7.230;2023-04-06T08:09:10;16.80;;;9.70;;
7729;SDS011;3908;52.310;7.230;2023-04-06T08:11:56;14.30;;;9.60;;
7729;SDS011;3908;52.310;7.230;2023-04-06T08:14:44;12.17;;;9.30;;
7729;SDS011;3908;52.310;7.230;2023-04-06T08:17:31;14.63;;;9.63;;
7729;SDS011;3908;52.310;7.230;2023-04-06T08:20:20;16.43;;;10.23;;
7729;SDS011;3908;52.310;7.230;2023-04-06T08:23:07;13.80;;;9.70;;
7729;SDS011;3908;52.310;7.230;2023-04-06T08:25:54;17.13;;;9.47;;
7729;SDS011;3908;52.310;7.230;2023-04-06T08:28:41;14.63;;;9.63;;
7729;SDS011;3908;52.310;7.230;2023-04-06T08:31:28;17.73;;;10.73;;
7729;SDS011;3908;52.310;7.230;2023-04-06T08:34:15;15.43;;;9.63;;
7729;SDS011;3908;52.310;7.230;2023-04-06T08:37:03;16.70;;;10.37;;
7729;SDS011;3908;52.310;7.230;2023-04-06T08:39:50;13.20;;;9.70;;
7729;SDS011;3908;52.310;7.230;2023-04-06T08:42:39;16.33;;;10.43;;
7729;SDS011;3908;52.310;7.230;2023-04-06T08:45:26;14.83;;;9.77;;
7729;SDS011;3908;52.310;7.230;2023-04-06T08:48:13;19.97;;;10.40;;
7729;SDS011;3908;52.310;7.230;2023-04-06T08:51:00;19.77;;;11.17;;
7729;SDS011;3908;52.310;7.230;2023-04-06T08:53:49;16.57;;;11.00;;
7729;SDS011;3908;52.310;7.230;2023-04-06T08:56:37;18.83;;;10.83;;
7729;SDS011;3908;52.310;7.230;2023-04-06T08:59:24;19.20;;;10.53;;
7729;SDS011;3908;52.310;7.230;2023-04-06T09:02:12;16.53;;;10.73;;
7729;SDS011;3908;52.310;7.230;2023-04-06T09:05:02;17.53;;;10.83;;
7729;SDS011;3908;52.310;7.230;2023-04-06T09:07:49;15.43;;;9.50;;
7729;SDS011;3908;52.310;7.230;2023-04-06T09:10:37;19.17;;;12.03;;
7729;SDS011;3908;52.310;7.230;2023-04-06T09:13:26;18.63;;;10.60;;
7729;SDS011;3908;52.310;7.230;2023-04-06T09:16:13;17.70;;;10.90;;
7729;SDS011;3908;52.310;7.230;2023-04-06T09:19:03;17.07;;;10.63;;
7729;SDS011;3908;52.310;7.230;2023-04-06T09:21:50;17.10;;;11.03;;
7729;SDS011;3908;52.310;7.230;2023-04-06T09:24:47;17.73;;;10.50;;
7729;SDS011;3908;52.310;7.230;2023-04-06T09:27:36;20.17;;;11.60;;
7729;SDS011;3908;52.310;7.230;2023-04-06T09:30:23;17.87;;;10.23;;
7729;SDS011;3908;52.310;7.230;2023-04-06T09:33:10;18.70;;;12.00;;
7729;SDS011;3908;52.310;7.230;2023-04-06T09:35:57;16.70;;;10.33;;
7729;SDS011;3908;52.310;7.230;2023-04-06T09:38:51;18.53;;;11.07;;
7729;SDS011;3908;52.310;7.230;2023-04-06T09:41:38;18.13;;;11.13;;
7729;SDS011;3908;52.310;7.230;2023-04-06T09:44:27;20.57;;;11.13;;
7729;SDS011;3908;52.310;7.230;2023-04-06T09:47:13;18.93;;;12.37;;
7729;SDS011;3908;52.310;7.230;2023-04-06T09:50:01;18.53;;;10.93;;
7729;SDS011;3908;52.310;7.230;2023-04-06T09:52:49;18.80;;;11.73;;
7729;SDS011;3908;52.310;7.230;2023-04-06T09:55:40;17.33;;;11.10;;
7729;SDS011;3908;52.310;7.230;2023-04-06T09:58:27;19.07;;;12.37;;
7729;SDS011;3908;52.310;7.230;2023-04-06T10:01:18;17.23;;;11.60;;
7729;SDS011;3908;52.310;7.230;2023-04-06T10:04:12;18.93;;;12.27;;
7729;SDS011;3908;52.310;7.230;2023-04-06T10:07:00;20.90;;;11.93;;
7729;SDS011;3908;52.310;7.230;2023-04-06T10:09:48;19.70;;;12.70;;
7729;SDS011;3908;52.310;7.230;2023-04-06T10:12:36;18.63;;;12.20;;
7729;SDS011;3908;52.310;7.230;2023-04-06T10:15:23;18.80;;;12.63;;
7729;SDS011;3908;52.310;7.230;2023-04-06T10:18:12;23.57;;;12.20;;
7729;SDS011;3908;52.310;7.230;2023-04-06T10:21:00;17.40;;;11.70;;
7729;SDS011;3908;52.310;7.230;2023-04-06T10:23:48;19.83;;;13.13;;
7729;SDS011;3908;52.310;7.230;2023-04-06T10:26:37;20.67;;;14.03;;
7729;SDS011;3908;52.310;7.230;2023-04-06T10:29:23;20.13;;;12.53;;
7729;SDS011;3908;52.310;7.230;2023-04-06T10:32:10;18.50;;;13.53;;
7729;SDS011;3908;52.310;7.230;2023-04-06T10:35:05;22.83;;;12.77;;
7729;SDS011;3908;52.310;7.230;2023-04-06T10:37:53;25.00;;;13.97;;
7729;SDS011;3908;52.310;7.230;2023-04-06T10:40:40;19.23;;;12.60;;
7729;SDS011;3908;52.310;7.230;2023-04-06T10:43:32;24.23;;;15.03;;
7729;SDS011;3908;52.310;7.230;2023-04-06T10:46:24;23.50;;;15.63;;
7729;SDS011;3908;52.310;7.230;2023-04-06T10:49:11;26.47;;;14.63;;
7729;SDS011;3908;52.310;7.230;2023-04-06T10:51:59;25.37;;;14.40;;
7729;SDS011;3908;52.310;7.230;2023-04-06T10:54:46;22.60;;;14.33;;
7729;SDS011;3908;52.310;7.230;2023-04-06T10:57:33;22.77;;;15.53;;
7729;SDS011;3908;52.310;7.230;2023-04-06T11:00:22;24.47;;;14.30;;
7729;SDS011;3908;52.310;7.230;2023-04-06T11:03:09;22.80;;;15.23;;
7729;SDS011;3908;52.310;7.230;2023-04-06T11:05:56;22.63;;;14.30;;
7729;SDS011;3908;52.310;7.230;2023-04-06T11:08:44;24.07;;;14.57;;
7729;SDS011;3908;52.310;7.230;2023-04-06T11:11:31;25.00;;;15.23;;
7729;SDS011;3908;52.310;7.230;2023-04-06T11:14:18;24.83;;;14.87;;
7729;SDS011;3908;52.310;7.230;2023-04-06T11:17:05;28.67;;;16.60;;
7729;SDS011;3908;52.310;7.230;2023-04-06T11:19:52;27.43;;;15.83;;
7729;SDS011;3908;52.310;7.230;2023-04-06T11:22:47;22.73;;;15.90;;
7729;SDS011;3908;52.310;7.230;2023-04-06T11:25:35;27.07;;;15.67;;
7729;SDS011;3908;52.310;7.230;2023-04-06T11:28:22;26.80;;;16.50;;
7729;SDS011;3908;52.310;7.230;2023-04-06T11:31:09;30.70;;;16.90;;
7729;SDS011;3908;52.310;7.230;2023-04-06T11:33:56;27.17;;;16.00;;
7729;SDS011;3908;52.310;7.230;2023-04-06T11:36:43;28.03;;;16.80;;
7729;SDS011;3908;52.310;7.230;2023-04-06T11:39:30;23.03;;;15.73;;
7729;SDS011;3908;52.310;7.230;2023-04-06T11:42:22;26.50;;;16.70;;
7729;SDS011;3908;52.310;7.230;2023-04-06T11:45:09;29.90;;;16.50;;
7729;SDS011;3908;52.310;7.230;2023-04-06T11:48:01;28.17;;;16.03;;
7729;SDS011;3908;52.310;7.230;2023-04-06T11:50:54;25.17;;;15.40;;
7729;SDS011;3908;52.310;7.230;2023-04-06T11:53:43;26.07;;;15.90;;
7729;SDS011;3908;52.310;7.230;2023-04-06T11:56:30;26.73;;;16.27;;
7729;SDS011;3908;52.310;7.230;2023-04-06T11:59:18;25.53;;;15.63;;
7729;SDS011;3908;52.310;7.230;2023-04-06T12:02:05;26.27;;;15.07;;
7729;SDS011;3908;52.310;7.230;2023-04-06T12:04:52;22.30;;;14.03;;
7729;SDS011;3908;52.310;7.230;2023-04-06T12:07:39;24.83;;;15.87;;
7729;SDS011;3908;52.310;7.230;2023-04-06T12:10:27;24.23;;;14.27;;
7729;SDS011;3908;52.310;7.230;2023-04-06T12:13:13;23.33;;;14.20;;
7729;SDS011;3908;52.310;7.230;2023-04-06T12:16:02;25.30;;;15.27;;
7729;SDS011;3908;52.310;7.230;2023-04-06T12:18:49;23.93;;;15.47;;
7729;SDS011;3908;52.310;7.230;2023-04-06T12:21:36;23.97;;;15.37;;
7729;SDS011;3908;52.310;7.230;2023-04-06T12:24:23;21.60;;;13.90;;
7729;SDS011;3908;52.310;7.230;2023-04-06T12:27:09;23.17;;;14.67;;
7729;SDS011;3908;52.310;7.230;2023-04-06T12:29:57;23.93;;;15.30;;
7729;SDS011;3908;52.310;7.230;2023-04-06T12:32:45;22.67;;;14.10;;
7729;SDS011;3908;52.310;7.230;2023-04-06T12:35:33;24.87;;;15.03;;
7729;SDS011;3908;52.310;7.230;2023-04-06T12:38:19;27.73;;;16.57;;
7729;SDS011;3908;52.310;7.230;2023-04-06T12:41:07;23.80;;;14.53;;
7729;SDS011;3908;52.310;7.230;2023-04-06T12:43:54;24.83;;;15.30;;
7729;SDS011;3908;52.310;7.230;2023-04-06T12:46:41;21.47;;;14.40;;
7729;SDS011;3908;52.310;7.230;2023-04-06T12:49:30;24.57;;;15.43;;
7729;SDS011;3908;52.310;7.230;2023-04-06T12:52:17;24.47;;;16.00;;
7729;SDS011;3908;52.310;7.230;2023-04-06T12:55:04;26.43;;;15.60;;
7729;SDS011;3908;52.310;7.230;2023-04-06T12:57:51;25.10;;;15.17;;
7729;SDS011;3908;52.310;7.230;2023-04-06T13:00:38;21.97;;;14.67;;
7729;SDS011;3908;52.310;7.230;2023-04-06T13:03:25;25.40;;;15.00;;
7729;SDS011;3908;52.310;7.230;2023-04-06T13:06:14;28.60;;;15.40;;
7729;SDS011;3908;52.310;7.230;2023-04-06T13:09:00;24.80;;;14.80;;
7729;SDS011;3908;52.310;7.230;2023-04-06T13:11:48;24.07;;;15.17;;
7729;SDS011;3908;52.310;7.230;2023-04-06T13:14:35;24.87;;;15.67;;
7729;SDS011;3908;52.310;7.230;2023-04-06T13:17:22;23.63;;;16.33;;
7729;SDS011;3908;52.310;7.230;2023-04-06T13:20:09;24.03;;;15.03;;
7729;SDS011;3908;52.310;7.230;2023-04-06T13:22:57;24.57;;;14.53;;
7729;SDS011;3908;52.310;7.230;2023-04-06T13:25:44;24.00;;;15.70;;
7729;SDS011;3908;52.310;7.230;2023-04-06T13:28:31;25.27;;;14.87;;
7729;SDS011;3908;52.310;7.230;2023-04-06T13:31:18;26.03;;;15.07;;
7729;SDS011;3908;52.310;7.230;2023-04-06T13:34:05;27.67;;;15.93;;
7729;SDS011;3908;52.310;7.230;2023-04-06T13:36:52;24.43;;;14.73;;
7729;SDS011;3908;52.310;7.230;2023-04-06T13:39:40;24.37;;;15.40;;
7729;SDS011;3908;52.310;7.230;2023-04-06T13:42:27;22.67;;;15.20;;
7729;SDS011;3908;52.310;7.230;2023-04-06T13:45:13;24.93;;;15.53;;
7729;SDS011;3908;52.310;7.230;2023-04-06T13:48:00;22.90;;;14.70;;
7729;SDS011;3908;52.310;7.230;2023-04-06T13:50:47;25.50;;;15.17;;
7729;SDS011;3908;52.310;7.230;2023-04-06T13:53:34;24.93;;;15.50;;
7729;SDS011;3908;52.310;7.230;2023-04-06T13:56:22;23.20;;;14.70;;
7729;SDS011;3908;52.310;7.230;2023-04-06T13:59:09;23.47;;;14.60;;
7729;SDS011;3908;52.310;7.230;2023-04-06T14:01:55;21.93;;;14.10;;
7729;SDS011;3908;52.310;7.230;2023-04-06T14:04:42;25.30;;;14.57;;
7729;SDS011;3908;52.310;7.230;2023-04-06T14:07:29;24.37;;;15.53;;
7729;SDS011;3908;52.310;7.230;2023-04-06T14:10:16;25.27;;;15.80;;
7729;SDS011;3908;52.310;7.230;2023-04-06T14:13:04;24.00;;;15.03;;
7729;SDS011;3908;52.310;7.230;2023-04-06T14:15:54;26.37;;;15.07;;
7729;SDS011;3908;52.310;7.230;2023-04-06T14:18:42;25.37;;;14.37;;
7729;SDS011;3908;52.310;7.230;2023-04-06T14:21:29;25.27;;;14.47;;
7729;SDS011;3908;52.310;7.230;2023-04-06T14:24:17;23.63;;;14.30;;
7729;SDS011;3908;52.310;7.230;2023-04-06T14:27:04;21.67;;;14.10;;
7729;SDS011;3908;52.310;7.230;2023-04-06T14:29:52;26.17;;;14.73;;
7729;SDS011;3908;52.310;7.230;2023-04-06T14:32:41;25.93;;;14.50;;
7729;SDS011;3908;52.310;7.230;2023-04-06T14:35:28;23.17;;;13.73;;
7729;SDS011;3908;52.310;7.230;2023-04-06T14:38:17;25.13;;;14.57;;
7729;SDS011;3908;52.310;7.230;2023-04-06T14:41:04;25.30;;;13.00;;
7729;SDS011;3908;52.310;7.230;2023-04-06T14:43:51;21.33;;;12.40;;
7729;SDS011;3908;52.310;7.230;2023-04-06T14:46:40;25.90;;;13.77;;
7729;SDS011;3908;52.310;7.230;2023-04-06T14:49:26;22.13;;;12.57;;
7729;SDS011;3908;52.310;7.230;2023-04-06T14:52:13;20.57;;;12.10;;
7729;SDS011;3908;52.310;7.230;2023-04-06T14:55:00;20.57;;;13.20;;
7729;SDS011;3908;52.310;7.230;2023-04-06T14:57:47;20.23;;;12.50;;
7729;SDS011;3908;52.310;7.230;2023-04-06T15:00:34;20.60;;;12.43;;
7729;SDS011;3908;52.310;7.230;2023-04-06T15:03:22;19.00;;;11.73;;
7729;SDS011;3908;52.310;7.230;2023-04-06T15:06:11;22.07;;;12.23;;
7729;SDS011;3908;52.310;7.230;2023-04-06T15:09:00;18.63;;;11.00;;
7729;SDS011;3908;52.310;7.230;2023-04-06T15:11:48;18.20;;;11.37;;
7729;SDS011;3908;52.310;7.230;2023-04-06T15:14:34;18.60;;;11.03;;
7729;SDS011;3908;52.310;7.230;2023-04-06T15:17:21;23.80;;;12.10;;
7729;SDS011;3908;52.310;7.230;2023-04-06T15:20:13;20.47;;;11.47;;
7729;SDS011;3908;52.310;7.230;2023-04-06T15:23:01;21.07;;;10.93;;
7729;SDS011;3908;52.310;7.230;2023-04-06T15:25:48;22.87;;;11.60;;
7729;SDS011;3908;52.310;7.230;2023-04-06T15:28:35;18.17;;;11.30;;
7729;SDS011;3908;52.310;7.230;2023-04-06T15:31:22;17.70;;;10.93;;
7729;SDS011;3908;52.310;7.230;2023-04-06T15:34:09;19.17;;;11.17;;
7729;SDS011;3908;52.310;7.230;2023-04-06T15:36:57;17.73;;;11.80;;
7729;SDS011;3908;52.310;7.230;2023-04-06T15:39:47;19.73;;;11.17;;
7729;SDS011;3908;52.310;7.230;2023-04-06T15:42:34;14.53;;;10.17;;
7729;SDS011;3908;52.310;7.230;2023-04-06T15:45:20;16.27;;;10.40;;
7729;SDS011;3908;52.310;7.230;2023-04-06T15:48:07;14.70;;;9.37;;
7729;SDS011;3908;52.310;7.230;2023-04-06T15:50:56;18.70;;;10.93;;
7729;SDS011;3908;52.310;7.230;2023-04-06T15:53:44;17.80;;;10.67;;
7729;SDS011;3908;52.310;7.230;2023-04-06T15:56:31;19.70;;;10.27;;
7729;SDS011;3908;52.310;7.230;2023-04-06T15:59:18;14.67;;;9.57;;
7729;SDS011;3908;52.310;7.230;2023-04-06T16:02:04;13.07;;;9.30;;
7729;SDS011;3908;52.310;7.230;2023-04-06T16:04:53;14.17;;;9.33;;
7729;SDS011;3908;52.310;7.230;2023-04-06T16:07:40;15.70;;;9.20;;
7729;SDS011;3908;52.310;7.230;2023-04-06T16:10:28;15.37;;;9.30;;
7729;SDS011;3908;52.310;7.230;2023-04-06T16:13:17;15.33;;;9.83;;
7729;SDS011;3908;52.310;7.230;2023-04-06T16:16:06;15.33;;;9.83;;
7729;SDS011;3908;52.310;7.230;2023-04-06T16:18:53;16.57;;;10.43;;
7729;SDS011;3908;52.310;7.230;2023-04-06T16:21:40;16.33;;;9.37;;
7729;SDS011;3908;52.310;7.230;2023-04-06T16:24:27;15.57;;;9.43;;
7729;SDS011;3908;52.310;7.230;2023-04-06T16:27:15;16.00;;;9.63;;
7729;SDS011;3908;52.310;7.230;2023-04-06T16:30:02;16.80;;;9.93;;
7729;SDS011;3908;52.310;7.230;2023-04-06T16:32:49;19.20;;;10.90;;
7729;SDS011;3908;52.310;7.230;2023-04-06T16:35:41;16.57;;;10.87;;
7729;SDS011;3908;52.310;7.230;2023-04-06T16:38:28;22.73;;;10.80;;
7729;SDS011;3908;52.310;7.230;2023-04-06T16:41:20;17.17;;;11.33;;
7729;SDS011;3908;52.310;7.230;2023-04-06T16:44:08;19.87;;;11.63;;
7729;SDS011;3908;52.310;7.230;2023-04-06T16:46:55;21.63;;;12.03;;
7729;SDS011;3908;52.310;7.230;2023-04-06T16:49:42;19.80;;;11.23;;
7729;SDS011;3908;52.310;7.230;2023-04-06T16:52:29;23.63;;;12.27;;
7729;SDS011;3908;52.310;7.230;2023-04-06T16:55:16;21.03;;;11.60;;
7729;SDS011;3908;52.310;7.230;2023-04-06T16:58:03;20.13;;;11.97;;